createdAt,value
2019-04-03T00:01:19.757Z,5.75
2019-04-03T00:03:49.833Z,6.25
2019-04-03T00:06:20.217Z,5.83
2019-04-03T00:08:50.285Z,8.23
2019-04-03T00:11:20.122Z,8.30
2019-04-03T00:13:50.105Z,5.03
2019-04-03T00:16:19.800Z,7.90
2019-04-03T00:18:49.662Z,6.37
2019-04-03T00:21:19.854Z,6.10
2019-04-03T00:23:52.690Z,7.08
2019-04-03T00:26:25.987Z,8.03
2019-04-03T00:28:56.451Z,6.62
2019-04-03T00:31:26.534Z,7.42
2019-04-03T00:33:56.724Z,6.33
2019-04-03T00:36:26.699Z,6.20
2019-04-03T00:38:56.715Z,6.37
2019-04-03T00:41:26.786Z,7.37
2019-04-03T00:43:56.880Z,6.25
2019-04-03T00:46:26.746Z,9.68
2019-04-03T00:48:57.184Z,12.65
2019-04-03T00:51:27.936Z,7.45
2019-04-03T00:53:59.100Z,7.67
2019-04-03T00:56:29.682Z,5.42
2019-04-03T00:58:59.787Z,7.58
2019-04-03T01:01:29.838Z,5.75
2019-04-03T01:04:03.599Z,10.98
2019-04-03T01:06:33.752Z,6.12
2019-04-03T01:09:05.394Z,6.90
2019-04-03T01:11:35.399Z,5.58
2019-04-03T01:14:05.849Z,5.05
2019-04-03T01:16:35.929Z,6.08
2019-04-03T01:19:06.718Z,6.33
2019-04-03T01:21:37.483Z,7.20
2019-04-03T01:24:08.484Z,5.37
2019-04-03T01:26:40.167Z,6.05
2019-04-03T01:29:10.627Z,7.08
2019-04-03T01:31:42.830Z,4.72
2019-04-03T01:34:13.780Z,7.05
2019-04-03T01:36:43.946Z,7.95
2019-04-03T01:39:14.784Z,6.95
2019-04-03T01:41:45.230Z,5.83
2019-04-03T01:44:15.129Z,4.50
2019-04-03T01:46:45.528Z,5.80
2019-04-03T01:49:15.529Z,4.60
2019-04-03T01:51:45.313Z,7.58
2019-04-03T01:54:15.904Z,7.12
2019-04-03T01:56:45.845Z,5.28
2019-04-03T01:59:16.386Z,7.65
2019-04-03T02:01:46.087Z,6.55
2019-04-03T02:04:15.950Z,5.67
2019-04-03T02:06:45.871Z,4.22
2019-04-03T02:09:16.326Z,5.53
2019-04-03T02:11:48.935Z,4.95
2019-04-03T02:14:23.739Z,5.37
2019-04-03T02:16:54.072Z,7.03
2019-04-03T02:19:25.626Z,4.42
2019-04-03T02:21:58.127Z,6.08
2019-04-03T02:24:26.891Z,5.40
2019-04-03T02:26:58.621Z,5.05
2019-04-03T02:29:28.800Z,5.60
2019-04-03T02:31:58.955Z,6.22
2019-04-03T02:34:28.905Z,10.23
2019-04-03T02:36:59.848Z,6.45
2019-04-03T02:39:30.656Z,7.47
2019-04-03T02:42:00.712Z,7.50
2019-04-03T02:44:30.618Z,6.60
2019-04-03T02:47:01.474Z,7.15
2019-04-03T02:49:32.315Z,7.80
2019-04-03T02:52:02.992Z,7.62
2019-04-03T02:54:35.764Z,6.50
2019-04-03T02:57:05.863Z,6.45
2019-04-03T02:59:36.288Z,6.75
2019-04-03T03:02:06.420Z,6.37
2019-04-03T03:04:36.607Z,4.95
2019-04-03T03:07:06.632Z,5.75
2019-04-03T03:09:37.468Z,3.80
2019-04-03T03:12:08.003Z,5.80
2019-04-03T03:14:40.318Z,6.58
2019-04-03T03:17:12.354Z,8.83
2019-04-03T03:19:43.682Z,4.87
2019-04-03T03:22:16.975Z,5.28
2019-04-03T03:24:46.800Z,4.28
2019-04-03T03:27:17.913Z,4.80
2019-04-03T03:29:48.282Z,5.10
2019-04-03T03:32:22.401Z,5.05
2019-04-03T03:35:05.303Z,3.45
2019-04-03T03:37:23.207Z,3.95
2019-04-03T03:39:53.400Z,4.15
2019-04-03T03:42:24.593Z,4.15
2019-04-03T03:44:55.493Z,4.45
2019-04-03T03:47:25.675Z,7.95
2019-04-03T03:49:56.774Z,7.03
2019-04-03T03:52:26.805Z,3.47
2019-04-03T03:54:57.016Z,3.75
2019-04-03T03:57:27.510Z,5.17
2019-04-03T03:59:59.181Z,5.95
2019-04-03T04:02:29.574Z,5.30
2019-04-03T04:04:59.656Z,3.52
2019-04-03T04:07:29.406Z,4.33
2019-04-03T04:09:59.616Z,8.98
2019-04-03T04:12:29.704Z,4.72
2019-04-03T04:15:00.149Z,4.05
2019-04-03T04:17:31.061Z,5.15
2019-04-03T04:20:05.165Z,6.05
2019-04-03T04:22:33.852Z,3.83
2019-04-03T04:25:05.766Z,5.03
2019-04-03T04:27:38.521Z,5.92
2019-04-03T04:30:12.073Z,8.20
2019-04-03T04:32:41.288Z,3.10
2019-04-03T04:35:11.867Z,4.28
2019-04-03T04:37:42.082Z,4.87
2019-04-03T04:40:12.820Z,4.72
2019-04-03T04:42:42.640Z,11.53
2019-04-03T04:45:12.803Z,165.52
2019-04-03T04:47:45.556Z,106.40
2019-04-03T04:50:15.597Z,50.92
2019-04-03T04:52:45.691Z,25.37
2019-04-03T04:55:16.080Z,78.87
2019-04-03T04:57:47.227Z,42.23
2019-04-03T05:00:17.486Z,23.40
2019-04-03T05:02:48.845Z,9.08
2019-04-03T05:05:19.737Z,6.10
2019-04-03T05:07:49.855Z,7.50
2019-04-03T05:10:20.003Z,6.85
2019-04-03T05:12:49.877Z,5.62
2019-04-03T05:15:23.594Z,6.67
2019-04-03T05:17:52.190Z,5.80
2019-04-03T05:20:22.439Z,5.60
2019-04-03T05:22:54.546Z,5.30
2019-04-03T05:25:24.061Z,5.58
2019-04-03T05:27:54.554Z,4.28
2019-04-03T05:30:31.432Z,7.45
2019-04-03T05:33:01.721Z,6.08
2019-04-03T05:35:32.692Z,9.40
2019-04-03T05:38:02.814Z,5.22
2019-04-03T05:40:32.806Z,4.15
2019-04-03T05:43:05.268Z,7.08
2019-04-03T05:45:36.121Z,5.58
2019-04-03T05:48:12.085Z,5.10
2019-04-03T05:50:38.271Z,7.60
2019-04-03T05:53:08.495Z,5.80
2019-04-03T05:55:40.395Z,9.00
2019-04-03T05:58:10.696Z,6.80
2019-04-03T06:00:41.187Z,5.58
2019-04-03T06:03:11.115Z,8.78
2019-04-03T06:05:41.816Z,6.45
2019-04-03T06:08:12.740Z,5.08
2019-04-03T06:10:43.334Z,7.00
2019-04-03T06:13:13.615Z,7.17
2019-04-03T06:15:45.230Z,3.40
2019-04-03T06:18:17.555Z,7.05
2019-04-03T06:20:47.345Z,5.05
2019-04-03T06:23:17.178Z,4.83
2019-04-03T06:25:48.686Z,7.97
2019-04-03T06:28:19.160Z,8.45
2019-04-03T06:30:49.773Z,9.48
2019-04-03T06:33:19.900Z,7.83
2019-04-03T06:35:49.879Z,7.20
2019-04-03T06:38:22.500Z,7.50
2019-04-03T06:40:52.954Z,6.35
2019-04-03T06:43:23.058Z,8.43
2019-04-03T06:45:58.616Z,7.05
2019-04-03T06:48:28.585Z,17.57
2019-04-03T06:50:58.494Z,18.10
2019-04-03T06:53:29.045Z,10.70
2019-04-03T06:55:59.504Z,11.68
2019-04-03T06:58:37.574Z,13.68
2019-04-03T07:01:01.249Z,10.82
2019-04-03T07:03:34.400Z,8.88
2019-04-03T07:06:04.662Z,13.53
2019-04-03T07:08:36.565Z,7.80
2019-04-03T07:11:06.555Z,7.15
2019-04-03T07:13:36.498Z,9.48
2019-04-03T07:16:06.200Z,10.82
2019-04-03T07:18:37.328Z,7.12
2019-04-03T07:21:08.376Z,9.83
2019-04-03T07:23:38.463Z,7.40
2019-04-03T07:26:08.600Z,6.80
2019-04-03T07:28:41.622Z,7.05
2019-04-03T07:31:11.008Z,9.58
2019-04-03T07:33:40.936Z,5.55
2019-04-03T07:36:11.656Z,5.30
2019-04-03T07:38:42.193Z,7.47
2019-04-03T07:41:12.209Z,6.33
2019-04-03T07:43:42.103Z,7.62
2019-04-03T07:46:12.211Z,6.70
2019-04-03T07:48:42.094Z,5.75
2019-04-03T07:51:12.946Z,9.08
2019-04-03T07:53:43.281Z,4.90
2019-04-03T07:56:13.345Z,5.58
2019-04-03T07:58:43.347Z,7.10
2019-04-03T08:01:14.248Z,5.67
2019-04-03T08:03:45.507Z,4.62
2019-04-03T08:06:15.461Z,7.62
2019-04-03T08:08:45.833Z,7.80
2019-04-03T08:11:15.731Z,5.10
2019-04-03T08:13:45.923Z,5.58
2019-04-03T08:16:17.344Z,5.35
2019-04-03T08:18:48.417Z,4.08
2019-04-03T08:21:19.809Z,5.15
2019-04-03T08:23:50.387Z,5.80
2019-04-03T08:26:20.410Z,6.42
2019-04-03T08:28:50.383Z,4.87
2019-04-03T08:31:20.356Z,6.90
2019-04-03T08:33:50.348Z,6.62
2019-04-03T08:36:25.644Z,6.12
2019-04-03T08:38:52.239Z,5.72
2019-04-03T08:41:24.185Z,4.90
2019-04-03T08:43:54.109Z,5.47
2019-04-03T08:46:24.305Z,5.40
2019-04-03T08:48:55.455Z,5.05
2019-04-03T08:51:26.194Z,4.53
2019-04-03T08:53:56.305Z,6.17
2019-04-03T08:56:26.475Z,4.83
2019-04-03T08:58:57.856Z,5.20
2019-04-03T09:01:28.298Z,8.58
2019-04-03T09:04:00.315Z,5.85
2019-04-03T09:06:30.923Z,4.12
2019-04-03T09:09:01.203Z,9.18
2019-04-03T09:11:34.096Z,6.85
2019-04-03T09:14:06.117Z,4.45
2019-04-03T09:16:36.366Z,5.35
2019-04-03T09:19:09.389Z,6.85
2019-04-03T09:21:38.020Z,5.92
2019-04-03T09:24:08.303Z,5.92
2019-04-03T09:26:38.811Z,6.37
2019-04-03T09:29:12.630Z,8.03
2019-04-03T09:31:41.396Z,6.60
2019-04-03T09:34:11.215Z,5.42
2019-04-03T09:36:41.318Z,5.55
2019-04-03T09:39:13.978Z,7.45
2019-04-03T09:41:43.771Z,6.97
2019-04-03T09:44:13.580Z,5.10
2019-04-03T09:46:45.127Z,4.00
2019-04-03T09:49:14.939Z,6.97
2019-04-03T09:51:44.929Z,7.42
2019-04-03T09:54:15.396Z,5.12
2019-04-03T09:56:57.142Z,7.42
2019-04-03T09:59:17.652Z,6.35
2019-04-03T10:01:48.633Z,5.15
2019-04-03T10:04:20.530Z,5.47
2019-04-03T10:06:50.731Z,7.37
2019-04-03T10:09:21.280Z,4.87
2019-04-03T10:11:52.523Z,5.03
2019-04-03T10:14:22.812Z,9.33
2019-04-03T10:16:54.083Z,9.95
2019-04-03T10:19:24.029Z,7.92
2019-04-03T10:21:54.145Z,7.08
2019-04-03T10:24:23.888Z,6.17
2019-04-03T10:26:53.884Z,8.13
2019-04-03T10:29:24.700Z,6.47
2019-04-03T10:31:55.742Z,9.05
2019-04-03T10:34:26.319Z,5.03
2019-04-03T10:36:56.252Z,6.35
2019-04-03T10:39:26.063Z,5.78
2019-04-03T10:41:56.067Z,6.78
2019-04-03T10:44:26.788Z,5.37
2019-04-03T10:46:56.635Z,6.20
2019-04-03T10:49:27.217Z,5.47
2019-04-03T10:51:57.965Z,5.95
2019-04-03T10:54:28.191Z,7.12
2019-04-03T10:56:58.759Z,6.65
2019-04-03T10:59:28.645Z,5.80
2019-04-03T11:01:58.950Z,6.58
2019-04-03T11:04:28.672Z,6.37
2019-04-03T11:06:59.074Z,8.35
2019-04-03T11:09:29.523Z,6.83
2019-04-03T11:12:00.590Z,5.75
2019-04-03T11:14:31.243Z,5.47
2019-04-03T11:17:00.975Z,6.60
2019-04-03T11:19:31.221Z,6.78
2019-04-03T11:22:01.089Z,6.37
2019-04-03T11:24:31.342Z,9.83
2019-04-03T11:27:01.403Z,7.53
2019-04-03T11:29:32.000Z,8.25
2019-04-03T11:32:01.974Z,6.00
2019-04-03T11:34:33.248Z,5.00
2019-04-03T11:37:04.947Z,5.53
2019-04-03T11:39:37.439Z,10.65
2019-04-03T11:42:06.858Z,7.67
2019-04-03T11:44:37.060Z,9.03
2019-04-03T11:47:06.862Z,7.12
2019-04-03T11:49:36.937Z,8.33
2019-04-03T11:52:06.732Z,7.55
2019-04-03T11:54:39.524Z,6.90
2019-04-03T11:57:11.502Z,7.97
2019-04-03T11:59:47.838Z,6.17
2019-04-03T12:02:18.899Z,7.08
2019-04-03T12:04:48.809Z,7.12
2019-04-03T12:07:18.520Z,6.22
2019-04-03T12:09:48.470Z,9.40
2019-04-03T12:12:18.516Z,7.75
2019-04-03T12:14:49.682Z,8.63
2019-04-03T12:17:21.173Z,6.47
2019-04-03T12:19:52.099Z,7.85
2019-04-03T12:22:23.111Z,5.40
2019-04-03T12:24:53.908Z,8.13
2019-04-03T12:27:24.497Z,7.28
2019-04-03T12:29:55.678Z,6.17
2019-04-03T12:32:36.473Z,10.58
2019-04-03T12:34:58.052Z,5.45
2019-04-03T12:37:28.020Z,6.33
2019-04-03T12:40:00.598Z,12.80
2019-04-03T12:42:30.580Z,6.75
2019-04-03T12:45:00.314Z,7.15
2019-04-03T12:47:30.381Z,7.03
2019-04-03T12:50:00.740Z,6.75
2019-04-03T12:52:31.069Z,6.75
2019-04-03T12:55:01.859Z,7.08
2019-04-03T12:57:33.757Z,7.40
2019-04-03T13:00:05.543Z,7.15
2019-04-03T13:02:35.721Z,7.25
2019-04-03T13:05:08.180Z,6.97
2019-04-03T13:07:38.349Z,9.00
2019-04-03T13:10:08.721Z,8.98
2019-04-03T13:12:39.432Z,8.28
2019-04-03T13:15:10.354Z,11.38
2019-04-03T13:17:43.586Z,6.75
2019-04-03T13:20:12.577Z,10.10
2019-04-03T13:22:43.337Z,8.15
2019-04-03T13:25:14.363Z,8.63
2019-04-03T13:27:44.425Z,7.58
2019-04-03T13:30:14.450Z,6.70
2019-04-03T13:32:56.709Z,8.35
2019-04-03T13:35:16.745Z,7.83
2019-04-03T13:37:47.447Z,6.05
2019-04-03T13:40:17.869Z,9.30
2019-04-03T13:42:49.379Z,11.12
2019-04-03T13:45:19.690Z,7.90
2019-04-03T13:47:49.995Z,7.17
2019-04-03T13:50:22.938Z,8.48
2019-04-03T13:52:52.427Z,8.00
2019-04-03T13:55:23.049Z,7.50
2019-04-03T13:57:53.064Z,8.18
2019-04-03T14:00:23.854Z,12.28
2019-04-03T14:02:57.062Z,9.15
2019-04-03T14:05:27.431Z,9.75
2019-04-03T14:07:58.674Z,9.55
2019-04-03T14:10:28.955Z,6.30
2019-04-03T14:12:58.882Z,5.37
2019-04-03T14:15:29.473Z,8.70
2019-04-03T14:17:59.549Z,5.78
2019-04-03T14:20:29.281Z,7.05
2019-04-03T14:23:02.702Z,9.48
2019-04-03T14:25:36.412Z,7.08
2019-04-03T14:28:03.434Z,6.55
2019-04-03T14:30:34.053Z,4.85
2019-04-03T14:33:05.576Z,5.83
2019-04-03T14:35:50.007Z,7.78
2019-04-03T14:38:07.738Z,5.70
2019-04-03T14:40:38.357Z,5.08
2019-04-03T14:43:09.747Z,5.67
2019-04-03T14:45:40.438Z,5.83
2019-04-03T14:48:10.180Z,5.70
2019-04-03T14:50:40.016Z,8.60
2019-04-03T14:53:09.812Z,5.95
2019-04-03T14:55:47.174Z,4.30
2019-04-03T14:58:12.999Z,5.12
2019-04-03T15:00:48.520Z,5.15
2019-04-03T15:03:17.033Z,5.75
2019-04-03T15:05:47.018Z,10.38
2019-04-03T15:08:17.288Z,9.03
2019-04-03T15:10:50.248Z,5.42
2019-04-03T15:13:21.053Z,7.17
2019-04-03T15:15:51.458Z,19.52
2019-04-03T15:18:21.910Z,13.80
2019-04-03T15:20:51.804Z,28.45
2019-04-03T15:23:21.976Z,6.65
2019-04-03T15:25:53.351Z,8.58
2019-04-03T15:28:23.956Z,5.97
2019-04-03T15:30:53.782Z,7.83
2019-04-03T15:33:24.881Z,6.95
2019-04-03T15:35:56.840Z,24.32
2019-04-03T15:38:26.651Z,10.20
2019-04-03T15:40:58.245Z,3.27
2019-04-03T15:43:27.905Z,7.10
2019-04-03T15:45:58.444Z,6.17
2019-04-03T15:48:29.038Z,5.67
2019-04-03T15:51:00.396Z,7.15
2019-04-03T15:53:30.442Z,3.00
2019-04-03T15:56:00.350Z,3.25
2019-04-03T15:58:30.947Z,2.10
2019-04-03T16:01:00.728Z,1.67
2019-04-03T16:03:30.864Z,3.55
2019-04-03T16:06:02.827Z,1.25
2019-04-03T16:08:32.185Z,4.10
2019-04-03T16:11:02.069Z,1.32
2019-04-03T16:13:31.990Z,2.80
2019-04-03T16:16:02.173Z,2.55
2019-04-03T16:18:32.739Z,2.42
2019-04-03T16:21:02.744Z,3.10
2019-04-03T16:23:34.265Z,0.93
2019-04-03T16:26:04.444Z,7.60
2019-04-03T16:28:35.323Z,1.50
2019-04-03T16:31:06.323Z,1.70
2019-04-03T16:33:37.434Z,2.37
2019-04-03T16:36:07.363Z,0.45
2019-04-03T16:38:37.413Z,1.17
2019-04-03T16:41:10.559Z,0.55
2019-04-03T16:43:39.691Z,0.40
2019-04-03T16:46:11.336Z,0.88
2019-04-03T16:48:41.133Z,0.68
2019-04-03T16:51:11.554Z,0.40
2019-04-03T16:53:41.431Z,0.30
2019-04-03T16:56:11.824Z,0.40
2019-04-03T16:58:42.235Z,1.72
2019-04-03T17:01:13.592Z,0.72
2019-04-03T17:03:43.413Z,0.53
2019-04-03T17:06:15.870Z,0.30
2019-04-03T17:08:45.334Z,1.20
2019-04-03T17:11:15.807Z,0.72
2019-04-03T17:13:45.556Z,1.00
2019-04-03T17:16:15.614Z,0.45
2019-04-03T17:18:47.124Z,1.20
2019-04-03T17:21:17.779Z,0.47
2019-04-03T17:23:47.709Z,0.40
2019-04-03T17:26:17.690Z,1.17
2019-04-03T17:28:47.685Z,0.33
2019-04-03T17:31:20.010Z,0.68
2019-04-03T17:33:49.797Z,0.30
2019-04-03T17:36:20.284Z,0.60
2019-04-03T17:38:51.040Z,0.93
2019-04-03T17:41:20.944Z,1.25
2019-04-03T17:43:50.962Z,0.62
2019-04-03T17:46:20.925Z,0.60
2019-04-03T17:48:50.743Z,0.35
2019-04-03T17:51:20.588Z,0.45
2019-04-03T17:53:50.455Z,0.68
2019-04-03T17:56:20.228Z,0.98
2019-04-03T17:58:49.984Z,0.72
2019-04-03T18:01:23.004Z,0.40
2019-04-03T18:03:53.164Z,0.95
2019-04-03T18:06:22.958Z,0.80
2019-04-03T18:08:52.855Z,1.45
2019-04-03T18:11:22.650Z,0.33
2019-04-03T18:13:52.992Z,0.40
2019-04-03T18:16:24.118Z,0.50
2019-04-03T18:18:53.984Z,0.50
2019-04-03T18:21:23.756Z,2.02
2019-04-03T18:23:53.573Z,1.02
2019-04-03T18:26:23.354Z,0.57
2019-04-03T18:28:53.157Z,1.35
2019-04-03T18:31:38.263Z,0.47
2019-04-03T18:34:09.763Z,0.50
2019-04-03T18:36:39.610Z,0.78
2019-04-03T18:39:09.747Z,0.55
2019-04-03T18:41:40.622Z,0.30
2019-04-03T18:44:21.580Z,0.40
2019-04-03T18:46:45.243Z,0.55
2019-04-03T18:49:15.111Z,0.33
2019-04-03T18:51:44.979Z,0.40
2019-04-03T18:54:14.748Z,0.40
2019-04-03T18:56:45.804Z,0.30
2019-04-03T18:59:16.225Z,0.65
2019-04-03T19:01:46.020Z,0.50
2019-04-03T19:04:15.816Z,0.40
2019-04-03T19:06:45.694Z,0.50
2019-04-03T19:09:15.965Z,1.37
2019-04-03T19:11:45.632Z,0.57
2019-04-03T19:14:26.610Z,2.17
2019-04-03T19:16:51.493Z,0.90
2019-04-03T19:19:18.527Z,4.97
2019-04-03T19:21:48.348Z,0.40
2019-04-03T19:24:19.709Z,0.50
2019-04-03T19:26:51.364Z,0.42
2019-04-03T19:29:21.249Z,1.70
2019-04-03T19:31:51.294Z,0.50
2019-04-03T19:34:21.213Z,0.40
2019-04-03T19:36:51.265Z,0.50
2019-04-03T19:39:21.020Z,0.60
2019-04-03T19:41:50.844Z,0.35
2019-04-03T19:44:20.661Z,1.20
2019-04-03T19:46:54.009Z,0.50
2019-04-03T19:49:27.331Z,0.53
2019-04-03T19:51:57.207Z,0.40
2019-04-03T19:54:27.058Z,0.85
2019-04-03T19:56:57.063Z,1.35
2019-04-03T19:59:29.909Z,0.60
2019-04-03T20:01:59.929Z,0.88
2019-04-03T20:04:29.850Z,0.60
2019-04-03T20:06:59.711Z,0.40
2019-04-03T20:09:32.733Z,0.40
2019-04-03T20:12:01.900Z,0.50
2019-04-03T20:14:31.827Z,0.40
2019-04-03T20:17:01.717Z,0.57
2019-04-03T20:19:33.681Z,0.68
2019-04-03T20:22:06.734Z,0.30
2019-04-03T20:24:34.846Z,0.50
2019-04-03T20:27:04.859Z,1.45
2019-04-03T20:29:35.000Z,0.62
2019-04-03T20:32:05.012Z,0.42
2019-04-03T20:34:36.437Z,0.42
2019-04-03T20:37:06.322Z,0.40
2019-04-03T20:39:36.155Z,0.45
2019-04-03T20:42:08.085Z,0.68
2019-04-03T20:44:39.009Z,0.50
2019-04-03T20:47:09.312Z,0.53
2019-04-03T20:49:39.150Z,0.65
2019-04-03T20:52:11.465Z,0.40
2019-04-03T20:54:40.399Z,0.68
2019-04-03T20:57:13.504Z,0.80
2019-04-03T20:59:52.537Z,0.95
2019-04-03T21:02:15.007Z,0.60
2019-04-03T21:04:46.783Z,0.70
2019-04-03T21:07:17.146Z,1.00
2019-04-03T21:09:47.011Z,4.08
2019-04-03T21:12:16.870Z,1.15
2019-04-03T21:14:47.622Z,0.93
2019-04-03T21:17:18.988Z,0.98
2019-04-03T21:19:52.024Z,0.65
2019-04-03T21:22:21.270Z,1.15
2019-04-03T21:24:51.813Z,1.20
2019-04-03T21:27:23.167Z,1.07
2019-04-03T21:29:53.153Z,0.70
2019-04-03T21:32:23.240Z,0.60
2019-04-03T21:34:53.132Z,0.60
2019-04-03T21:37:23.256Z,1.15
2019-04-03T21:39:53.170Z,0.65
2019-04-03T21:42:23.078Z,0.78
2019-04-03T21:44:53.004Z,0.70
2019-04-03T21:47:22.936Z,0.75
2019-04-03T21:49:52.681Z,1.42
2019-04-03T21:52:22.847Z,0.70
2019-04-03T21:54:53.566Z,0.95
2019-04-03T21:57:23.398Z,0.95
2019-04-03T21:59:53.215Z,0.85
2019-04-03T22:02:22.944Z,0.60
2019-04-03T22:04:53.991Z,1.85
2019-04-03T22:07:24.248Z,0.65
2019-04-03T22:09:54.140Z,1.00
2019-04-03T22:12:24.001Z,0.80
2019-04-03T22:14:53.734Z,0.80
2019-04-03T22:17:23.578Z,0.98
2019-04-03T22:19:53.464Z,0.90
2019-04-03T22:22:23.193Z,1.02
2019-04-03T22:24:53.041Z,1.05
2019-04-03T22:27:23.107Z,0.80
2019-04-03T22:29:52.913Z,1.02
2019-04-03T22:32:23.039Z,1.05
2019-04-03T22:34:54.242Z,1.20
2019-04-03T22:37:24.089Z,0.90
2019-04-03T22:39:54.067Z,1.57
2019-04-03T22:42:24.313Z,4.22
2019-04-03T22:44:54.085Z,1.27
2019-04-03T22:47:25.095Z,1.30
2019-04-03T22:49:55.470Z,1.65
2019-04-03T22:52:25.313Z,1.20
2019-04-03T22:54:55.196Z,1.37
2019-04-03T22:57:24.951Z,1.27
2019-04-03T22:59:55.285Z,1.30
2019-04-03T23:02:25.773Z,1.90
2019-04-03T23:04:55.768Z,1.27
2019-04-03T23:07:25.791Z,1.12
2019-04-03T23:09:56.777Z,1.15
2019-04-03T23:12:27.147Z,1.27
2019-04-03T23:14:57.077Z,1.57
2019-04-03T23:17:27.211Z,1.27
2019-04-03T23:19:57.111Z,1.20
2019-04-03T23:22:27.115Z,1.20
2019-04-03T23:24:59.298Z,1.32
2019-04-03T23:27:28.462Z,1.22
2019-04-03T23:29:58.305Z,1.37
2019-04-03T23:32:28.005Z,1.60
2019-04-03T23:34:57.738Z,1.82
2019-04-03T23:37:27.425Z,1.20
